createdAt,value
2017-06-13T00:02:19.453Z,1.80
2017-06-13T00:04:47.046Z,1.87
2017-06-13T00:07:14.595Z,1.83
2017-06-13T00:09:42.136Z,2.10
2017-06-13T00:12:09.711Z,2.43
2017-06-13T00:14:37.284Z,2.17
2017-06-13T00:17:04.856Z,2.93
2017-06-13T00:19:32.404Z,1.90
2017-06-13T00:21:59.939Z,2.13
2017-06-13T00:24:27.509Z,2.30
2017-06-13T00:26:55.082Z,1.90
2017-06-13T00:29:22.632Z,1.90
2017-06-13T00:31:50.186Z,2.23
2017-06-13T00:34:18.897Z,2.40
2017-06-13T00:36:46.455Z,2.33
2017-06-13T00:39:14.007Z,2.80
2017-06-13T00:41:41.586Z,2.20
2017-06-13T00:44:09.155Z,2.10
2017-06-13T00:46:36.759Z,2.13
2017-06-13T00:49:04.330Z,2.87
2017-06-13T00:51:31.870Z,2.30
2017-06-13T00:54:03.676Z,2.30
2017-06-13T00:56:31.253Z,2.30
2017-06-13T00:58:58.790Z,2.20
2017-06-13T01:01:26.331Z,2.17
2017-06-13T01:03:53.899Z,2.10
2017-06-13T01:06:21.438Z,2.27
2017-06-13T01:08:48.987Z,2.23
2017-06-13T01:11:16.560Z,2.10
2017-06-13T01:13:44.108Z,1.90
2017-06-13T01:16:11.654Z,1.80
2017-06-13T01:18:39.217Z,2.00
2017-06-13T01:21:06.776Z,2.27
2017-06-13T01:23:34.320Z,2.77
2017-06-13T01:26:01.879Z,2.53
2017-06-13T01:28:29.417Z,2.47
2017-06-13T01:30:56.980Z,2.40
2017-06-13T01:33:24.537Z,3.00
2017-06-13T01:35:52.085Z,2.30
2017-06-13T01:38:19.631Z,2.23
2017-06-13T01:40:48.207Z,2.40
2017-06-13T01:43:15.757Z,2.47
2017-06-13T01:45:43.302Z,2.60
2017-06-13T01:48:11.854Z,2.20
2017-06-13T01:50:39.410Z,1.87
2017-06-13T01:53:06.969Z,2.20
2017-06-13T01:55:34.556Z,2.20
2017-06-13T01:58:02.090Z,1.80
2017-06-13T02:00:29.622Z,2.00
2017-06-13T02:02:57.191Z,2.27
2017-06-13T02:05:24.749Z,2.20
2017-06-13T02:07:52.305Z,2.47
2017-06-13T02:10:19.889Z,1.90
2017-06-13T02:12:47.429Z,2.30
2017-06-13T02:15:14.962Z,2.27
2017-06-13T02:17:43.537Z,2.87
2017-06-13T02:20:11.077Z,2.17
2017-06-13T02:22:38.619Z,2.30
2017-06-13T02:25:07.171Z,2.20
2017-06-13T02:27:34.702Z,2.20
2017-06-13T02:30:02.244Z,2.93
2017-06-13T02:32:29.820Z,2.40
2017-06-13T02:34:57.353Z,2.93
2017-06-13T02:37:24.897Z,2.50
2017-06-13T02:39:52.464Z,3.10
2017-06-13T02:42:20.015Z,2.83
2017-06-13T02:44:47.551Z,2.70
2017-06-13T02:47:15.121Z,2.67
2017-06-13T02:49:42.692Z,2.13
2017-06-13T02:52:10.256Z,2.43
2017-06-13T02:54:37.811Z,2.63
2017-06-13T02:57:05.364Z,2.47
2017-06-13T02:59:32.944Z,2.53
2017-06-13T03:02:00.497Z,2.70
2017-06-13T03:04:28.057Z,4.17
2017-06-13T03:06:55.620Z,2.73
2017-06-13T03:09:26.037Z,2.60
2017-06-13T03:11:53.598Z,2.67
2017-06-13T03:14:21.129Z,2.73
2017-06-13T03:16:48.662Z,2.80
2017-06-13T03:19:16.230Z,2.73
2017-06-13T03:21:43.768Z,2.80
2017-06-13T03:24:11.307Z,2.33
2017-06-13T03:26:38.858Z,2.53
2017-06-13T03:29:06.397Z,2.27
2017-06-13T03:31:33.981Z,2.60
2017-06-13T03:34:01.535Z,2.73
2017-06-13T03:36:29.086Z,3.13
2017-06-13T03:38:56.659Z,3.20
2017-06-13T03:41:24.206Z,3.10
2017-06-13T03:43:51.771Z,2.50
2017-06-13T03:46:19.311Z,3.03
2017-06-13T03:48:46.844Z,2.93
2017-06-13T03:51:14.416Z,2.60
2017-06-13T03:53:41.960Z,2.33
2017-06-13T03:56:09.511Z,3.50
2017-06-13T03:58:37.082Z,2.60
2017-06-13T04:01:04.638Z,2.73
2017-06-13T04:03:32.173Z,2.60
2017-06-13T04:05:59.761Z,2.87
2017-06-13T04:08:27.286Z,2.77
2017-06-13T04:10:54.841Z,2.50
2017-06-13T04:13:22.418Z,2.13
2017-06-13T04:15:49.959Z,2.17
2017-06-13T04:18:17.554Z,2.13
2017-06-13T04:20:45.135Z,2.93
2017-06-13T04:23:12.688Z,1.87
2017-06-13T04:25:40.275Z,2.37
2017-06-13T04:28:07.816Z,2.53
2017-06-13T04:30:35.368Z,2.90
2017-06-13T04:33:03.911Z,3.43
2017-06-13T04:35:31.453Z,2.97
2017-06-13T04:37:58.994Z,3.43
2017-06-13T04:40:26.569Z,2.60
2017-06-13T04:42:54.102Z,2.70
2017-06-13T04:45:21.653Z,2.57
2017-06-13T04:47:49.214Z,2.37
2017-06-13T04:50:16.754Z,2.77
2017-06-13T04:52:44.280Z,3.07
2017-06-13T04:55:11.840Z,2.20
2017-06-13T04:57:39.372Z,2.23
2017-06-13T05:00:06.916Z,2.40
2017-06-13T05:02:34.481Z,2.33
2017-06-13T05:05:02.015Z,2.40
2017-06-13T05:07:29.556Z,2.20
2017-06-13T05:09:57.101Z,2.63
2017-06-13T05:12:24.870Z,2.20
2017-06-13T05:14:52.427Z,3.00
2017-06-13T05:17:19.998Z,2.77
2017-06-13T05:19:47.553Z,3.37
2017-06-13T05:22:15.137Z,3.60
2017-06-13T05:24:42.702Z,3.47
2017-06-13T05:27:10.219Z,3.90
2017-06-13T05:29:37.759Z,3.73
2017-06-13T05:32:05.320Z,3.60
2017-06-13T05:34:32.881Z,3.60
2017-06-13T05:37:00.452Z,4.37
2017-06-13T05:39:28.026Z,3.40
2017-06-13T05:41:55.736Z,3.97
2017-06-13T05:44:23.311Z,3.40
2017-06-13T05:46:50.887Z,4.50
2017-06-13T05:49:18.429Z,4.00
2017-06-13T05:51:46.072Z,3.67
2017-06-13T05:54:14.662Z,3.77
2017-06-13T05:56:42.243Z,3.60
2017-06-13T05:59:09.809Z,3.93
2017-06-13T06:01:37.359Z,3.40
2017-06-13T06:04:04.902Z,3.90
2017-06-13T06:06:32.487Z,3.57
2017-06-13T06:09:00.056Z,3.93
2017-06-13T06:11:27.600Z,3.90
2017-06-13T06:13:55.191Z,5.20
2017-06-13T06:16:22.755Z,3.20
2017-06-13T06:18:50.330Z,3.60
2017-06-13T06:21:17.905Z,3.53
2017-06-13T06:23:45.453Z,3.17
2017-06-13T06:26:12.999Z,3.90
2017-06-13T06:28:40.571Z,3.67
2017-06-13T06:31:08.124Z,3.40
2017-06-13T06:33:35.680Z,3.83
2017-06-13T06:36:03.255Z,4.10
2017-06-13T06:38:30.822Z,3.30
2017-06-13T06:40:58.364Z,4.00
2017-06-13T06:43:25.944Z,4.30
2017-06-13T06:45:53.487Z,4.10
2017-06-13T06:48:21.047Z,3.50
2017-06-13T06:50:48.646Z,4.00
2017-06-13T06:53:16.211Z,4.47
2017-06-13T06:55:43.746Z,4.07
2017-06-13T06:58:11.314Z,4.00
2017-06-13T07:00:38.843Z,3.70
2017-06-13T07:03:06.388Z,3.70
2017-06-13T07:05:33.947Z,4.20
2017-06-13T07:08:01.531Z,4.27
2017-06-13T07:10:29.095Z,4.37
2017-06-13T07:12:56.766Z,4.47
2017-06-13T07:15:24.310Z,4.40
2017-06-13T07:17:51.854Z,4.23
2017-06-13T07:20:19.425Z,3.50
2017-06-13T07:22:46.980Z,3.90
2017-06-13T07:25:14.546Z,3.80
2017-06-13T07:27:42.130Z,5.00
2017-06-13T07:30:09.673Z,3.97
2017-06-13T07:32:37.200Z,4.13
2017-06-13T07:35:04.767Z,4.37
2017-06-13T07:37:32.371Z,4.13
2017-06-13T07:39:59.906Z,4.13
2017-06-13T07:42:27.446Z,4.00
2017-06-13T07:44:54.994Z,4.33
2017-06-13T07:47:22.565Z,4.40
2017-06-13T07:49:51.142Z,4.10
2017-06-13T07:52:18.685Z,4.30
2017-06-13T07:54:46.234Z,4.20
2017-06-13T07:57:14.800Z,4.70
2017-06-13T07:59:42.375Z,4.50
2017-06-13T08:02:09.946Z,5.17
2017-06-13T08:04:37.506Z,5.03
2017-06-13T08:07:05.059Z,4.77
2017-06-13T08:09:32.621Z,4.83
2017-06-13T08:12:00.212Z,4.80
2017-06-13T08:14:27.773Z,4.93
2017-06-13T08:16:55.308Z,4.90
2017-06-13T08:19:22.878Z,5.30
2017-06-13T08:21:50.410Z,4.90
2017-06-13T08:24:17.943Z,5.70
2017-06-13T08:26:45.529Z,4.93
2017-06-13T08:29:13.087Z,4.80
2017-06-13T08:31:40.654Z,5.50
2017-06-13T08:34:08.228Z,5.47
2017-06-13T08:36:35.754Z,5.60
2017-06-13T08:39:03.337Z,5.80
2017-06-13T08:41:30.874Z,5.40
2017-06-13T08:43:58.433Z,5.20
2017-06-13T08:46:26.028Z,5.17
2017-06-13T08:48:53.582Z,4.60
2017-06-13T08:51:21.149Z,4.90
2017-06-13T08:53:48.699Z,4.20
2017-06-13T08:56:16.276Z,4.37
2017-06-13T08:58:43.830Z,4.13
2017-06-13T09:01:11.376Z,4.17
2017-06-13T09:03:38.921Z,4.27
2017-06-13T09:06:06.500Z,5.03
2017-06-13T09:08:34.059Z,4.57
2017-06-13T09:11:01.598Z,4.73
2017-06-13T09:13:29.164Z,4.30
2017-06-13T09:15:56.714Z,4.10
2017-06-13T09:18:24.270Z,4.60
2017-06-13T09:22:11.774Z,4.97
2017-06-13T09:24:39.358Z,4.50
2017-06-13T09:27:06.897Z,4.40
2017-06-13T09:29:34.456Z,4.53
2017-06-13T09:32:02.035Z,4.20
2017-06-13T09:34:29.582Z,4.80
2017-06-13T09:36:57.156Z,4.63
2017-06-13T09:39:24.692Z,4.97
2017-06-13T09:41:52.258Z,5.13
2017-06-13T09:44:19.852Z,5.63
2017-06-13T09:46:47.391Z,5.30
2017-06-13T09:49:14.940Z,5.53
2017-06-13T09:51:42.507Z,4.77
2017-06-13T09:54:10.028Z,5.63
2017-06-13T09:56:37.572Z,4.97
2017-06-13T09:59:06.140Z,4.47
2017-06-13T10:01:33.680Z,5.00
2017-06-13T10:04:01.224Z,5.80
2017-06-13T10:06:28.785Z,6.13
2017-06-13T10:08:56.339Z,5.20
2017-06-13T10:11:23.970Z,5.20
2017-06-13T10:13:51.549Z,4.90
2017-06-13T10:16:19.113Z,4.87
2017-06-13T10:18:46.655Z,5.10
2017-06-13T10:21:14.214Z,5.17
2017-06-13T10:23:41.783Z,4.90
2017-06-13T10:26:09.325Z,5.20
2017-06-13T10:28:37.881Z,4.60
2017-06-13T10:31:05.442Z,4.90
2017-06-13T10:33:32.980Z,5.53
2017-06-13T10:36:00.545Z,4.90
2017-06-13T10:38:28.091Z,5.20
2017-06-13T10:40:55.638Z,6.07
2017-06-13T10:43:23.260Z,5.83
2017-06-13T10:45:50.797Z,6.00
2017-06-13T10:48:18.344Z,6.00
2017-06-13T10:50:46.910Z,5.13
2017-06-13T10:53:14.470Z,5.70
2017-06-13T10:55:42.047Z,5.10
2017-06-13T10:58:09.600Z,5.47
2017-06-13T11:00:38.159Z,6.70
2017-06-13T11:03:05.740Z,6.30
2017-06-13T11:05:33.278Z,5.47
2017-06-13T11:08:00.856Z,5.80
2017-06-13T11:10:28.451Z,5.93
2017-06-13T11:12:55.993Z,6.20
2017-06-13T11:15:23.568Z,6.70
2017-06-13T11:17:51.160Z,5.83
2017-06-13T11:20:18.690Z,6.17
2017-06-13T11:22:47.240Z,6.00
2017-06-13T11:25:14.833Z,6.03
2017-06-13T11:27:43.028Z,5.60
2017-06-13T11:30:10.618Z,6.13
2017-06-13T11:32:38.205Z,7.10
2017-06-13T11:35:05.752Z,5.40
2017-06-13T11:37:33.434Z,6.30
2017-06-13T11:40:01.010Z,6.03
2017-06-13T11:42:28.560Z,6.47
2017-06-13T11:44:56.128Z,5.90
2017-06-13T11:47:23.684Z,5.87
2017-06-13T11:49:51.300Z,6.07
2017-06-13T11:52:18.837Z,6.10
2017-06-13T11:54:46.390Z,5.80
2017-06-13T11:57:13.956Z,5.53
2017-06-13T11:59:41.497Z,5.57
2017-06-13T12:02:09.149Z,6.97
2017-06-13T12:04:38.065Z,5.70
2017-06-13T12:07:05.670Z,5.77
2017-06-13T12:09:33.226Z,4.83
2017-06-13T12:12:00.772Z,5.80
2017-06-13T12:14:28.376Z,5.00
2017-06-13T12:16:55.929Z,5.57
2017-06-13T12:19:23.466Z,5.20
2017-06-13T12:21:51.012Z,5.10
2017-06-13T12:24:18.751Z,5.60
2017-06-13T12:26:46.301Z,5.10
2017-06-13T12:29:13.970Z,5.70
2017-06-13T12:31:41.558Z,5.40
2017-06-13T12:34:09.081Z,5.40
2017-06-13T12:36:36.634Z,5.27
2017-06-13T12:39:04.210Z,5.10
2017-06-13T12:41:31.768Z,5.47
2017-06-13T12:43:59.332Z,5.00
2017-06-13T12:46:26.897Z,4.90
2017-06-13T12:48:54.576Z,5.40
2017-06-13T12:51:22.156Z,5.23
2017-06-13T12:53:49.702Z,5.33
2017-06-13T12:56:17.248Z,6.50
2017-06-13T12:58:44.795Z,5.07
2017-06-13T13:01:13.385Z,4.97
2017-06-13T13:03:41.910Z,5.43
2017-06-13T13:06:09.443Z,5.53
2017-06-13T13:08:37.003Z,4.60
2017-06-13T13:11:04.566Z,5.60
2017-06-13T13:13:32.098Z,5.00
2017-06-13T13:15:59.646Z,4.77
2017-06-13T13:18:27.216Z,4.27
2017-06-13T13:20:54.822Z,4.30
2017-06-13T13:23:22.372Z,4.17
2017-06-13T13:25:49.954Z,4.83
2017-06-13T13:28:17.518Z,4.80
2017-06-13T13:30:45.081Z,4.37
2017-06-13T13:33:12.731Z,4.90
2017-06-13T13:35:40.286Z,4.97
2017-06-13T13:38:07.827Z,4.57
2017-06-13T13:40:35.388Z,4.07
2017-06-13T13:43:02.923Z,4.00
2017-06-13T13:45:30.500Z,4.20
2017-06-13T13:47:58.085Z,4.07
2017-06-13T13:50:25.631Z,4.30
2017-06-13T13:52:53.165Z,4.30
2017-06-13T13:55:20.738Z,4.03
2017-06-13T13:57:48.335Z,4.13
2017-06-13T14:00:15.888Z,4.60
2017-06-13T14:02:43.463Z,4.30
2017-06-13T14:05:11.008Z,4.70
2017-06-13T14:07:38.536Z,4.50
2017-06-13T14:10:06.119Z,3.77
2017-06-13T14:12:33.654Z,3.70
2017-06-13T14:15:01.194Z,4.20
2017-06-13T14:17:28.768Z,3.87
2017-06-13T14:19:56.314Z,3.57
2017-06-13T14:22:23.876Z,3.73
2017-06-13T14:24:51.435Z,4.00
2017-06-13T14:27:18.977Z,3.73
2017-06-13T14:29:46.549Z,3.97
2017-06-13T14:32:14.118Z,4.40
2017-06-13T14:34:41.669Z,3.60
2017-06-13T14:37:09.264Z,4.03
2017-06-13T14:39:37.835Z,4.20
2017-06-13T14:42:05.390Z,4.43
2017-06-13T14:44:32.940Z,4.20
2017-06-13T14:47:00.515Z,4.33
2017-06-13T14:49:28.080Z,3.83
2017-06-13T14:51:55.623Z,4.00
2017-06-13T14:54:23.218Z,4.63
2017-06-13T14:56:50.788Z,4.20
2017-06-13T14:59:18.354Z,4.50
2017-06-13T15:01:45.932Z,4.20
2017-06-13T15:04:13.469Z,4.07
2017-06-13T15:06:40.995Z,3.80
2017-06-13T15:09:09.517Z,3.77
2017-06-13T15:11:37.071Z,3.90
2017-06-13T15:14:04.674Z,4.17
2017-06-13T15:16:32.232Z,3.53
2017-06-13T15:18:59.772Z,3.83
2017-06-13T15:21:27.325Z,4.30
2017-06-13T15:23:54.914Z,5.83
2017-06-13T15:26:22.471Z,3.90
2017-06-13T15:28:50.082Z,3.70
2017-06-13T15:31:17.653Z,4.30
2017-06-13T15:33:45.196Z,4.03
2017-06-13T15:36:12.711Z,4.40
2017-06-13T15:38:40.276Z,4.43
2017-06-13T15:41:07.831Z,3.60
2017-06-13T15:43:35.377Z,4.07
2017-06-13T15:46:02.940Z,4.40
2017-06-13T15:48:30.529Z,4.80
2017-06-13T15:50:58.076Z,4.30
2017-06-13T15:53:25.634Z,4.00
2017-06-13T15:55:53.204Z,4.37
2017-06-13T15:58:20.765Z,3.80
2017-06-13T16:00:48.979Z,4.00
2017-06-13T16:03:16.553Z,4.23
2017-06-13T16:05:44.115Z,3.83
2017-06-13T16:08:11.685Z,3.90
2017-06-13T16:10:39.210Z,3.97
2017-06-13T16:13:06.751Z,4.07
2017-06-13T16:15:34.366Z,4.13
2017-06-13T16:18:01.911Z,4.03
2017-06-13T16:20:29.447Z,4.43
2017-06-13T16:22:57.046Z,3.53
2017-06-13T16:25:24.609Z,3.90
2017-06-13T16:27:52.151Z,3.63
2017-06-13T16:30:20.310Z,3.33
2017-06-13T16:32:48.408Z,3.40
2017-06-13T16:35:16.010Z,3.63
2017-06-13T16:37:43.607Z,3.67
2017-06-13T16:40:11.151Z,3.60
2017-06-13T16:42:38.682Z,3.97
2017-06-13T16:45:06.290Z,3.33
2017-06-13T16:47:33.861Z,3.90
2017-06-13T16:50:01.404Z,3.33
2017-06-13T16:52:28.974Z,3.00
2017-06-13T16:54:56.514Z,3.70
2017-06-13T16:57:24.152Z,4.07
2017-06-13T16:59:51.735Z,4.00
2017-06-13T17:02:19.360Z,3.80
2017-06-13T17:04:46.916Z,3.60
2017-06-13T17:07:14.532Z,3.40
2017-06-13T17:09:42.081Z,3.13
2017-06-13T17:12:10.570Z,3.07
2017-06-13T17:14:38.145Z,3.10
2017-06-13T17:17:05.695Z,2.80
2017-06-13T17:19:33.234Z,3.13
2017-06-13T17:22:00.795Z,3.17
2017-06-13T17:24:28.354Z,3.20
2017-06-13T17:26:55.901Z,3.10
2017-06-13T17:29:23.465Z,3.30
2017-06-13T17:31:51.016Z,3.13
2017-06-13T17:34:18.547Z,4.00
2017-06-13T17:36:46.316Z,3.30
2017-06-13T17:39:13.843Z,3.70
2017-06-13T17:41:41.393Z,4.27
2017-06-13T17:44:08.953Z,3.77
2017-06-13T17:46:36.480Z,3.23
2017-06-13T17:49:04.020Z,3.23
2017-06-13T17:51:32.587Z,3.40
2017-06-13T17:54:00.136Z,3.20
2017-06-13T17:56:27.683Z,3.20
2017-06-13T17:58:55.244Z,3.47
2017-06-13T18:01:22.776Z,3.77
2017-06-13T18:03:50.305Z,3.40
2017-06-13T18:06:17.897Z,3.70
2017-06-13T18:08:45.423Z,3.70
2017-06-13T18:11:12.950Z,3.70
2017-06-13T18:13:40.604Z,3.30
2017-06-13T18:16:08.190Z,3.60
2017-06-13T18:18:35.923Z,3.80
2017-06-13T18:21:03.810Z,4.20
2017-06-13T18:23:31.568Z,3.90
2017-06-13T18:25:59.329Z,3.73
2017-06-13T18:28:26.957Z,3.57
2017-06-13T18:30:54.542Z,3.30
2017-06-13T18:33:22.096Z,3.63
2017-06-13T18:35:49.672Z,3.70
2017-06-13T18:38:17.222Z,3.37
2017-06-13T18:40:44.777Z,3.37
2017-06-13T18:43:12.358Z,3.33
2017-06-13T18:45:39.911Z,3.20
2017-06-13T18:48:07.462Z,3.13
2017-06-13T18:50:35.027Z,4.43
2017-06-13T18:53:02.652Z,3.50
2017-06-13T18:55:30.200Z,3.90
2017-06-13T18:57:57.763Z,4.00
2017-06-13T19:00:25.381Z,3.60
2017-06-13T19:02:52.988Z,4.00
2017-06-13T19:05:20.675Z,5.33
2017-06-13T19:07:48.209Z,3.93
2017-06-13T19:10:15.762Z,4.97
2017-06-13T19:12:43.330Z,4.17
2017-06-13T19:15:10.880Z,4.00
2017-06-13T19:17:38.527Z,4.40
2017-06-13T19:20:06.096Z,5.53
2017-06-13T19:22:33.626Z,4.67
2017-06-13T19:25:01.161Z,4.47
2017-06-13T19:27:28.720Z,4.50
2017-06-13T19:29:56.261Z,5.50
2017-06-13T19:32:23.810Z,5.30
2017-06-13T19:34:51.406Z,4.90
2017-06-13T19:37:18.989Z,4.87
2017-06-13T19:39:46.538Z,4.57
2017-06-13T19:42:14.147Z,4.50
2017-06-13T19:44:41.773Z,4.47
2017-06-13T19:47:09.329Z,5.37
2017-06-13T19:49:36.891Z,4.70
2017-06-13T19:52:04.505Z,4.17
2017-06-13T19:54:32.070Z,4.63
2017-06-13T19:56:59.650Z,4.83
2017-06-13T19:59:27.190Z,5.67
2017-06-13T20:01:54.745Z,4.67
2017-06-13T20:04:22.327Z,5.00
2017-06-13T20:06:50.569Z,5.37
2017-06-13T20:09:18.127Z,4.97
2017-06-13T20:11:45.713Z,5.53
2017-06-13T20:14:13.293Z,5.00
2017-06-13T20:16:40.841Z,5.47
2017-06-13T20:19:08.449Z,5.10
2017-06-13T20:21:41.566Z,5.03
2017-06-13T20:24:10.200Z,4.73
2017-06-13T20:26:37.771Z,5.17
2017-06-13T20:29:11.018Z,6.33
2017-06-13T20:31:38.646Z,5.20
2017-06-13T20:34:06.241Z,5.13
2017-06-13T20:36:33.869Z,5.40
2017-06-13T20:39:01.448Z,4.40
2017-06-13T20:41:29.005Z,5.57
2017-06-13T20:43:56.802Z,4.97
2017-06-13T20:46:24.341Z,5.87
2017-06-13T20:48:51.889Z,5.97
2017-06-13T20:51:19.565Z,5.27
2017-06-13T20:53:47.103Z,5.07
2017-06-13T20:56:14.671Z,5.27
2017-06-13T20:58:42.232Z,5.40
2017-06-13T21:01:09.777Z,4.80
2017-06-13T21:03:37.364Z,5.20
2017-06-13T21:06:04.927Z,5.33
2017-06-13T21:08:32.462Z,5.07
2017-06-13T21:11:00.051Z,4.63
2017-06-13T21:13:27.687Z,5.20
2017-06-13T21:15:55.230Z,5.20
2017-06-13T21:18:22.753Z,4.73
2017-06-13T21:20:50.305Z,5.73
2017-06-13T21:23:17.845Z,5.30
2017-06-13T21:25:45.407Z,4.83
2017-06-13T21:28:12.985Z,4.90
2017-06-13T21:30:40.574Z,5.60
2017-06-13T21:33:08.100Z,5.03
2017-06-13T21:35:35.764Z,5.60
2017-06-13T21:38:03.312Z,5.20
2017-06-13T21:40:30.842Z,5.07
2017-06-13T21:42:58.409Z,5.03
2017-06-13T21:45:25.971Z,4.90
2017-06-13T21:47:53.517Z,6.00
2017-06-13T21:50:21.098Z,6.03
2017-06-13T21:52:48.623Z,4.50
2017-06-13T21:55:16.190Z,5.20
2017-06-13T21:57:43.818Z,4.73
2017-06-13T22:00:11.358Z,4.77
2017-06-13T22:02:38.981Z,5.10
2017-06-13T22:05:06.774Z,5.63
2017-06-13T22:07:34.337Z,5.67
2017-06-13T22:10:01.888Z,5.77
2017-06-13T22:12:29.460Z,5.20
2017-06-13T22:14:57.001Z,5.50
2017-06-13T22:17:24.527Z,5.00
2017-06-13T22:19:52.086Z,5.40
2017-06-13T22:22:20.438Z,5.20
2017-06-13T22:24:47.971Z,6.20
2017-06-13T22:27:16.556Z,6.13
2017-06-13T22:29:44.698Z,5.33
2017-06-13T22:32:12.240Z,5.60
2017-06-13T22:34:39.786Z,5.47
2017-06-13T22:37:07.376Z,5.10
2017-06-13T22:39:34.935Z,4.90
2017-06-13T22:42:02.837Z,5.80
2017-06-13T22:44:30.389Z,5.90
2017-06-13T22:46:57.929Z,5.93
2017-06-13T22:49:25.489Z,5.90
2017-06-13T22:51:53.091Z,6.13
2017-06-13T22:54:20.639Z,6.47
2017-06-13T22:56:48.197Z,6.23
2017-06-13T22:59:15.741Z,6.00
2017-06-13T23:01:43.315Z,5.97
2017-06-13T23:04:10.896Z,6.00
2017-06-13T23:06:38.448Z,6.30
2017-06-13T23:09:05.998Z,6.33
2017-06-13T23:11:33.570Z,6.80
2017-06-13T23:14:01.130Z,5.77
2017-06-13T23:16:28.670Z,6.57
2017-06-13T23:18:56.288Z,7.20
2017-06-13T23:21:23.866Z,6.50
2017-06-13T23:23:51.424Z,7.00
2017-06-13T23:26:18.991Z,6.67
2017-06-13T23:28:46.529Z,7.00
2017-06-13T23:31:15.675Z,5.53
2017-06-13T23:33:43.248Z,6.17
2017-06-13T23:36:10.856Z,6.30
2017-06-13T23:38:38.428Z,7.00
2017-06-13T23:41:05.958Z,7.10
2017-06-13T23:43:33.548Z,6.47
2017-06-13T23:46:01.110Z,6.87
2017-06-13T23:48:28.661Z,6.20
2017-06-13T23:50:56.220Z,7.20
2017-06-13T23:53:23.790Z,7.57
2017-06-13T23:55:51.382Z,7.07
2017-06-13T23:58:19.940Z,7.80
